SMZO/ORG METAR and TAF weather

Enter ICAO airport designator
Station Type Date Time Source
SMZO METAR 2021/04/13 00:00 UTC NOAA

SMZO 130000Z 07004KT 9999 FEW010 27/24 Q1011 NOSIG


Station Type Date Time Source
SMZO Decoded METAR 2021/04/13 00:00 UTC NOAA

Station name not available
Apr 12, 2021 - 08:00 PM EDT / 2021.04.13 0000 UTC
Wind: from the ENE (070 degrees) at 5 MPH (4 KT):0
Visibility: greater than 7 mile(s):0
Sky conditions: mostly clear
Temperature: 80 F (27 C)
Dew Point: 75 F (24 C)
Relative Humidity: 83%
Pressure (altimeter): 29.85 in. Hg (1011 hPa)
ob: SMZO 130000Z 07004KT 9999 FEW010 27/24 Q1011 NOSIG
cycle: 0

Station Type Date Time Source
SMZO TAF 2021/04/12 18:09 UTC NOAA

TAF TAF SMZO 121600Z 1218/1318 05008KT 9999 SCT030 TX32/1218Z TN24/1309Z
TEMPO 1218/1221 5000 SHRA FEW015TCU SCT018
BECMG 1223/1301 06004KT FEW010
FM131200 09006KT 9999 SCT015

Example: see airport list